CheckWX is a tool to help pilots better visualize weather data.  It is not intended as a substitute for an official pre-flight weather briefing.

12:33:14 UTC

LTCG TAF
Trabzon International Airport
Trabzon, Turkey
TAF LTCG 221040Z 2212/2312 28009KT 8000 SCT010 BKN028 PROB30 2215/2218 3200 -SHRA BR BKN006 BKN025 BECMG 2218/2221 SCT015 BKN035

Mar-22@
12:00 UTC

Mar-22 @ 12:00 UTC

Mar-22@
18:00 UTC

Mar-22 @ 18:00 UTC

TAF LTCG 221040Z 2212/2312 28009KT 8000 SCT010 BKN028
Wind
  • 280° at 9 KTS
Cloud Levels
  • Scattered at 1,000' AGL
  • Broken at 2,800' AGL

Mar-22@
15:00 UTC

Mar-22 @ 15:00 UTC

Mar-22@
18:00 UTC

Mar-22 @ 18:00 UTC

PROB30 2215/2218 3200 -SHRA BR BKN006 BKN025

Probable - 30% Likelihood

Probable - 30% Likelihood during this time.

Conditions
Light Rain, Mist
Cloud Levels
  • Broken at 600' AGL
  • Broken at 2,500' AGL

Mar-22@
18:00 UTC

Mar-22 @ 18:00 UTC

Mar-23@
12:00 UTC

Mar-23 @ 12:00 UTC

BECMG 2218/2221 SCT015 BKN035

Becoming

Becoming Conditions expected by Fri, Mar 22, 2019 @ 21:00 UTC

Wind
  • 280° at 9 KTS
Cloud Levels
  • Scattered at 1,500' AGL
  • Broken at 3,500' AGL